Time;durP1;ratioP1;P1;durP2;ratioP2;P2;SDS_P1;SDS_P2;PMS_P1;PMS_P2;Temp;Humidity;BMP_temperature;BMP_pressure;BME280_temperature;BME280_humidity;BME280_pressure;Samples;Min_cycle;Max_cycle;Signal;HPM_P1;HPM_P2
2022/05/10 00:00:55;;;;;;;;;28.50;23.75;;;;;19.97;51.77;101914.13;2392504;28;46688;-83
2022/05/10 00:02:08;;;;;;;;;25.75;24.75;;;;;19.96;51.94;101916.84;2397619;28;45343;-82
2022/05/10 00:03:19;;;;;;;;;21.50;20.25;;;;;19.96;51.65;101911.50;2399310;28;45706;-82
2022/05/10 00:04:29;;;;;;;;;28.75;26.50;;;;;19.97;51.64;101910.56;2407064;28;45393;-82
2022/05/10 00:05:41;;;;;;;;;25.00;24.00;;;;;19.94;51.74;101910.72;2403166;28;46731;-82
2022/05/10 00:06:53;;;;;;;;;24.50;24.50;;;;;19.93;52.14;101915.19;2410077;28;44698;-90
2022/05/10 00:08:07;;;;;;;;;27.25;25.25;;;;;19.94;52.00;101910.72;2390716;28;47141;-90
2022/05/10 00:09:20;;;;;;;;;27.50;26.50;;;;;19.93;52.21;101909.03;2397849;28;45446;-89
2022/05/10 00:10:31;;;;;;;;;25.25;23.50;;;;;19.90;52.32;101915.41;2408190;28;45489;-89
2022/05/10 00:11:42;;;;;;;;;25.00;24.25;;;;;19.91;52.63;101911.75;2391646;28;45388;-87
2022/05/10 00:12:52;;;;;;;;;27.75;26.25;;;;;19.89;51.87;101908.31;2400918;28;45481;-88
2022/05/10 00:14:04;;;;;;;;;29.25;24.00;;;;;19.88;52.54;101911.91;2407957;28;45219;-87
2022/05/10 00:15:14;;;;;;;;;31.00;27.75;;;;;19.87;52.19;101911.09;2393760;28;47374;-87
2022/05/10 00:16:25;;;;;;;;;24.50;24.50;;;;;19.87;52.61;101904.88;2396121;28;45477;-87
2022/05/10 00:17:41;;;;;;;;;30.25;26.25;;;;;19.87;52.23;101905.75;2397551;28;45465;-87
2022/05/10 00:18:51;;;;;;;;;26.75;24.25;;;;;19.87;52.68;101910.22;2395042;28;45393;-88
2022/05/10 00:20:04;;;;;;;;;23.00;22.75;;;;;19.85;52.54;101904.09;2398078;28;45422;-87
2022/05/10 00:21:24;;;;;;;;;34.25;26.75;;;;;19.83;52.63;101904.16;2405268;28;45216;-91
2022/05/10 00:22:34;;;;;;;;;23.75;23.75;;;;;19.83;52.65;101903.34;2401011;28;45518;-92
2022/05/10 00:23:45;;;;;;;;;29.50;26.50;;;;;19.83;52.78;101900.66;2393872;28;45288;-91
2022/05/10 00:24:56;;;;;;;;;31.75;25.75;;;;;19.82;53.30;101910.47;2400119;28;45583;-91
2022/05/10 00:26:07;;;;;;;;;28.25;24.00;;;;;19.79;53.05;101907.97;2407762;28;44813;-92
2022/05/10 00:27:17;;;;;;;;;28.25;24.75;;;;;19.79;52.98;101907.97;2390158;28;47113;-91
2022/05/10 00:28:28;;;;;;;;;27.75;26.50;;;;;19.78;52.86;101909.75;2392131;28;46476;-91
2022/05/10 00:29:38;;;;;;;;;28.25;25.50;;;;;19.77;52.87;101902.72;2398188;28;46313;-91
2022/05/10 00:30:48;;;;;;;;;25.25;24.50;;;;;19.75;53.07;101907.28;2410420;28;44775;-92
2022/05/10 00:31:59;;;;;;;;;29.25;25.75;;;;;19.76;52.94;101908.13;2388569;28;47936;-90
2022/05/10 00:33:15;;;;;;;;;31.25;29.50;;;;;19.76;52.98;101908.97;2394125;28;45651;-91
2022/05/10 00:34:29;;;;;;;;;30.00;26.00;;;;;19.75;52.94;101909.94;2400107;28;46558;-91
2022/05/10 00:35:39;;;;;;;;;29.50;25.25;;;;;19.74;52.87;101899.34;2399463;28;45479;-91
2022/05/10 00:36:49;;;;;;;;;30.25;25.50;;;;;19.72;53.31;101902.09;2397263;28;46755;-91
2022/05/10 00:38:02;;;;;;;;;32.25;25.25;;;;;19.73;53.36;101901.13;2403903;28;44785;-91
2022/05/10 00:39:13;;;;;;;;;28.00;27.50;;;;;19.72;53.50;101896.75;2406683;28;47286;-91
2022/05/10 00:40:27;;;;;;;;;26.00;23.50;;;;;19.73;53.02;101898.47;2389001;28;45254;-91
2022/05/10 00:41:47;;;;;;;;;32.75;29.25;;;;;19.73;53.14;101897.63;2398000;28;47993;-91
2022/05/10 00:43:01;;;;;;;;;25.75;23.00;;;;;19.72;53.67;101902.09;2408871;28;44660;-92
2022/05/10 00:44:19;;;;;;;;;24.50;24.50;;;;;19.70;53.44;101895.13;2396562;28;47270;-93
2022/05/10 00:45:58;;;;;;;;;28.25;26.00;;;;;19.71;53.23;101899.50;2395490;28;45664;-92
2022/05/10 00:47:18;;;;;;;;;27.25;26.25;;;;;19.69;53.57;101902.25;2399218;28;47087;-91
2022/05/10 00:48:37;;;;;;;;;29.25;27.00;;;;;19.68;53.73;101901.38;2384205;28;45354;-92
2022/05/10 00:50:15;;;;;;;;;25.50;24.50;;;;;19.68;53.27;101895.19;2392335;28;48274;-92
2022/05/10 00:51:40;;;;;;;;;33.25;29.25;;;;;19.66;53.67;101891.75;2389986;28;45235;-92
2022/05/10 00:53:06;;;;;;;;;28.75;26.50;;;;;19.64;53.61;101893.63;2394419;28;47124;-93
2022/05/10 00:54:32;;;;;;;;;32.00;28.50;;;;;19.65;53.75;101898.03;2399796;28;45322;-92
2022/05/10 00:56:14;;;;;;;;;25.00;23.75;;;;;19.61;54.09;101888.47;2395618;28;46420;-92
2022/05/10 00:57:37;;;;;;;;;25.75;24.75;;;;;19.61;53.90;101889.31;2406140;28;45337;-93
2022/05/10 00:59:08;;;;;;;;;30.50;26.75;;;;;19.60;53.95;101886.75;2399019;28;47133;-92
2022/05/10 01:00:22;;;;;;;;;27.00;24.00;;;;;19.59;54.10;101879.69;2387969;28;45274;-92
2022/05/10 01:01:34;;;;;;;;;24.50;22.75;;;;;19.57;54.39;101879.78;2388084;28;47675;-93
2022/05/10 01:03:16;;;;;;;;;29.00;27.50;;;;;19.56;54.27;101881.56;2394328;28;45569;-93
2022/05/10 01:04:35;;;;;;;;;27.50;27.00;;;;;19.54;54.12;101877.25;2398436;28;47638;-93
2022/05/10 01:05:46;;;;;;;;;26.00;25.00;;;;;19.54;53.78;101874.59;2390997;28;44645;-92
2022/05/10 01:07:13;;;;;;;;;28.50;25.25;;;;;19.52;54.24;101877.34;2392785;28;46493;-93
2022/05/10 01:08:24;;;;;;;;;25.00;23.50;;;;;19.49;54.34;101872.19;2392289;28;45367;-95
2022/05/10 01:10:05;;;;;;;;;31.00;28.75;;;;;19.49;54.50;101869.50;2399279;28;48363;-93
2022/05/10 01:11:25;;;;;;;;;26.75;25.50;;;;;19.47;54.42;101870.53;2400651;28;44731;-88
2022/05/10 01:12:49;;;;;;;;;26.75;26.25;;;;;19.46;54.06;101864.34;2402839;28;47551;-88
2022/05/10 01:14:04;;;;;;;;;28.25;26.75;;;;;19.45;54.43;101873.28;2406963;28;44691;-89
2022/05/10 01:15:25;;;;;;;;;32.25;27.75;;;;;19.42;54.71;101870.78;2403386;28;46152;-89
2022/05/10 01:16:35;;;;;;;;;18.50;18.50;;;;;19.41;54.44;101866.41;2400177;28;45380;-89
2022/05/10 01:17:47;;;;;;;;;22.25;18.50;;;;;19.40;54.83;101870.88;2391686;28;47154;-89
2022/05/10 01:18:57;;;;;;;;;32.75;26.75;;;;;19.39;54.67;101870.94;2392070;28;44839;-89
2022/05/10 01:20:13;;;;;;;;;32.75;27.50;;;;;19.36;54.55;101863.97;2387149;28;48498;-94
2022/05/10 01:21:35;;;;;;;;;30.25;26.75;;;;;19.36;54.92;101863.97;2396119;28;45410;-89
2022/05/10 01:23:22;;;;;;;;;30.00;28.50;;;;;19.35;54.73;101859.59;2395860;28;47278;-88
2022/05/10 01:24:38;;;;;;;;;31.50;27.75;;;;;19.32;54.83;101863.28;2399818;28;45282;-88
2022/05/10 01:25:51;;;;;;;;;27.75;25.00;;;;;19.30;54.77;101859.84;2400453;28;47090;-88
2022/05/10 01:27:13;;;;;;;;;29.50;25.00;;;;;19.30;54.83;101856.31;2399768;28;44787;-89
2022/05/10 01:28:30;;;;;;;;;29.50;27.25;;;;;19.27;54.53;101857.31;2404888;28;46295;-88
2022/05/10 01:29:57;;;;;;;;;26.25;24.50;;;;;19.26;54.76;101857.41;2387860;28;45527;-88
2022/05/10 01:31:32;;;;;;;;;27.00;24.75;;;;;19.23;54.66;101851.31;2404091;28;45298;-89
2022/05/10 01:34:25;;;;;;;;;23.50;23.25;;;;;19.20;54.88;101854.13;2385339;28;46098;-90
2022/05/10 01:35:44;;;;;;;;;29.25;25.50;;;;;19.20;54.80;101854.13;2397625;28;44654;-90
2022/05/10 01:36:59;;;;;;;;;30.25;29.00;;;;;19.20;55.13;101853.25;2396670;28;48083;-92
2022/05/10 01:38:39;;;;;;;;;29.00;24.50;;;;;19.18;55.19;101850.69;2396242;28;45399;-92
2022/05/10 01:39:55;;;;;;;;;29.25;26.25;;;;;19.15;55.31;101849.94;2390859;28;47333;-84
2022/05/10 01:41:17;;;;;;;;;28.75;28.00;;;;;19.12;54.90;101841.16;2404150;28;45278;-84
2022/05/10 01:42:45;;;;;;;;;30.25;26.25;;;;;19.14;55.13;101851.72;2406069;28;46446;-84
2022/05/10 01:43:58;;;;;;;;;23.25;23.25;;;;;19.14;55.26;101849.06;2402532;28;45303;-85
2022/05/10 01:45:27;;;;;;;;;28.50;25.50;;;;;19.10;55.43;101852.84;2396700;28;47486;-84
2022/05/10 01:46:37;;;;;;;;;25.25;23.50;;;;;19.09;55.42;101840.44;2402716;28;45373;-84
2022/05/10 01:47:58;;;;;;;;;29.00;26.50;;;;;19.07;55.27;101843.19;2408604;28;45388;-84
2022/05/10 01:49:27;;;;;;;;;25.00;24.50;;;;;19.07;55.45;101843.19;2400581;28;45234;-84
2022/05/10 01:50:51;;;;;;;;;30.50;25.50;;;;;19.06;55.25;101844.13;2399660;28;46506;-84
2022/05/10 01:52:11;;;;;;;;;30.50;26.50;;;;;19.06;55.78;101838.81;2400408;28;45219;-87
2022/05/10 01:53:31;;;;;;;;;29.75;28.75;;;;;19.06;55.68;101841.47;2405741;28;45692;-87
2022/05/10 01:54:41;;;;;;;;;30.50;28.75;;;;;19.03;55.54;101836.31;2399002;28;45397;-86
2022/05/10 01:55:58;;;;;;;;;33.50;30.50;;;;;19.01;55.86;101839.03;2394606;28;45658;-86
2022/05/10 01:57:13;;;;;;;;;31.00;28.50;;;;;19.01;55.58;101832.88;2407389;28;45008;-86
2022/05/10 01:58:26;;;;;;;;;33.25;30.25;;;;;19.00;55.70;101839.13;2398774;28;45501;-86
2022/05/10 01:59:40;;;;;;;;;23.25;22.75;;;;;19.00;55.75;101841.78;2403925;28;45259;-87
2022/05/10 02:00:55;;;;;;;;;26.00;26.00;;;;;18.98;55.66;101843.69;2395598;28;47857;-88
2022/05/10 02:02:09;;;;;;;;;30.25;29.50;;;;;18.99;55.66;101840.94;2393365;28;45347;-87
2022/05/10 02:03:38;;;;;;;;;26.75;26.75;;;;;18.97;56.16;101837.50;2397578;28;45320;-89
2022/05/10 02:04:53;;;;;;;;;31.00;27.00;;;;;18.96;55.67;101838.44;2402630;28;45224;-89
2022/05/10 02:06:26;;;;;;;;;28.75;23.75;;;;;18.95;55.69;101831.38;2393918;28;47077;-88
2022/05/10 02:07:41;;;;;;;;;32.00;27.00;;;;;18.94;56.18;101831.47;2393857;28;44796;-88
2022/05/10 02:09:15;;;;;;;;;33.50;28.25;;;;;18.93;56.06;101827.06;2395854;28;45970;-89
2022/05/10 02:10:34;;;;;;;;;31.25;28.25;;;;;18.91;56.30;101831.63;2388715;28;44769;-91
2022/05/10 02:11:52;;;;;;;;;34.00;30.50;;;;;18.91;55.56;101828.97;2397985;28;46308;-91
2022/05/10 02:13:11;;;;;;;;;33.00;31.50;;;;;18.91;56.31;101831.63;2396140;28;44721;-88
2022/05/10 02:14:29;;;;;;;;;29.25;27.50;;;;;18.88;55.59;101825.50;2394432;28;48262;-88
2022/05/10 02:15:54;;;;;;;;;32.75;28.00;;;;;18.87;56.23;101826.44;2402459;28;44719;-88
2022/05/10 02:17:11;;;;;;;;;31.50;27.00;;;;;18.86;56.07;101824.75;2409027;28;45483;-87
2022/05/10 02:18:41;;;;;;;;;30.75;28.50;;;;;18.87;56.07;101831.78;2407812;28;45317;-83
2022/05/10 02:20:03;;;;;;;;;30.00;27.00;;;;;18.87;56.38;101826.44;2410057;28;45535;-83
2022/05/10 02:21:18;;;;;;;;;30.00;28.00;;;;;18.84;56.02;101826.59;2405762;28;44804;-83
2022/05/10 02:22:41;;;;;;;;;34.00;29.00;;;;;18.83;56.28;101824.03;2401276;28;45417;-82
2022/05/10 02:24:04;;;;;;;;;29.25;27.25;;;;;18.82;56.13;101820.50;2403849;28;45238;-82
2022/05/10 02:25:19;;;;;;;;;30.75;28.25;;;;;18.83;56.30;101827.56;2402522;28;46449;-82
2022/05/10 02:26:44;;;;;;;;;30.00;28.00;;;;;18.80;56.25;101817.03;2403546;28;45279;-83
2022/05/10 02:28:08;;;;;;;;;33.00;30.75;;;;;18.81;56.54;101825.91;2405236;28;45436;-85
2022/05/10 02:29:31;;;;;;;;;24.75;24.75;;;;;18.81;56.35;101825.91;2405144;28;45232;-85
2022/05/10 02:30:44;;;;;;;;;32.50;30.50;;;;;18.81;56.63;101828.56;2398666;28;46192;-85
2022/05/10 02:33:50;;;;;;;;;33.75;30.00;;;;;18.75;56.19;101819.06;2403428;28;45508;-85
2022/05/10 02:35:05;;;;;;;;;36.50;31.50;;;;;18.76;56.92;101818.16;2399340;28;45456;-85
2022/05/10 02:36:17;;;;;;;;;26.75;25.25;;;;;18.74;56.59;101820.03;2400176;28;45409;-85
2022/05/10 02:37:27;;;;;;;;;29.50;27.75;;;;;18.76;56.81;101828.81;2397247;28;45489;-86
2022/05/10 02:38:39;;;;;;;;;34.25;30.75;;;;;18.74;56.74;101820.03;2402981;28;45435;-86
2022/05/10 02:39:50;;;;;;;;;30.75;28.00;;;;;18.73;56.91;101820.97;2400956;28;44789;-85
2022/05/10 02:41:03;;;;;;;;;29.75;29.75;;;;;18.73;56.28;101820.97;2392813;28;47434;-84
2022/05/10 02:42:18;;;;;;;;;28.25;27.75;;;;;18.74;57.18;101820.03;2402399;28;45408;-84
2022/05/10 02:43:32;;;;;;;;;32.00;28.50;;;;;18.73;56.84;101827.16;2401517;28;45424;-84
2022/05/10 02:44:42;;;;;;;;;34.00;27.75;;;;;18.73;56.99;101818.28;2402082;28;44737;-87
2022/05/10 02:45:54;;;;;;;;;34.00;31.50;;;;;18.71;57.00;101815.72;2393546;28;47079;-88
2022/05/10 02:47:06;;;;;;;;;34.00;29.25;;;;;18.72;57.18;101816.56;2390566;28;45327;-87
2022/05/10 02:48:32;;;;;;;;;33.25;28.00;;;;;18.72;56.81;101816.56;2400552;28;46922;-87
2022/05/10 02:49:43;;;;;;;;;33.50;28.25;;;;;18.70;56.95;101813.13;2401895;28;44692;-86
2022/05/10 02:50:54;;;;;;;;;27.75;25.25;;;;;18.70;56.72;101813.13;2392599;28;47255;-86
2022/05/10 02:52:04;;;;;;;;;29.50;28.50;;;;;18.72;57.25;101816.56;2402186;28;44744;-86
2022/05/10 02:53:15;;;;;;;;;28.50;28.50;;;;;18.70;56.90;101814.00;2396918;28;47636;-86
2022/05/10 02:54:25;;;;;;;;;34.50;31.75;;;;;18.70;57.22;101807.78;2397968;28;45375;-86
2022/05/10 02:55:58;;;;;;;;;31.25;29.50;;;;;18.71;57.19;101814.84;2408789;28;46463;-85
2022/05/10 02:57:08;;;;;;;;;29.50;28.00;;;;;18.70;57.40;101813.13;2394872;28;45551;-85
2022/05/10 02:58:33;;;;;;;;;32.50;30.25;;;;;18.70;56.83;101810.47;2402551;28;45235;-85
2022/05/10 02:59:43;;;;;;;;;27.00;26.50;;;;;18.70;57.13;101808.66;2394579;28;45386;-85
2022/05/10 03:01:01;;;;;;;;;28.50;27.00;;;;;18.70;57.30;101814.00;2393355;28;46443;-85
2022/05/10 03:02:26;;;;;;;;;36.25;31.75;;;;;18.69;57.05;101806.09;2386116;28;45470;-84
2022/05/10 03:03:37;;;;;;;;;35.75;30.25;;;;;18.69;57.14;101801.63;2395727;28;45684;-85
2022/05/10 03:04:54;;;;;;;;;27.00;25.75;;;;;18.71;57.54;101809.53;2405713;28;45274;-85
2022/05/10 03:06:04;;;;;;;;;27.75;27.25;;;;;18.67;57.42;101801.69;2400631;28;47322;-84
2022/05/10 03:07:15;;;;;;;;;29.75;28.00;;;;;18.70;57.78;101803.34;2395133;28;45482;-84
2022/05/10 03:08:25;;;;;;;;;27.50;25.75;;;;;18.70;57.66;101798.00;2405241;28;45482;-84
2022/05/10 03:09:36;;;;;;;;;27.25;25.50;;;;;18.70;57.85;101799.81;2408935;28;44978;-84
2022/05/10 03:10:47;;;;;;;;;33.00;28.75;;;;;18.71;57.66;101802.41;2404060;28;46788;-84
2022/05/10 03:11:57;;;;;;;;;28.25;25.50;;;;;18.71;57.11;101793.56;2411407;28;45270;-85
2022/05/10 03:13:07;;;;;;;;;30.25;29.25;;;;;18.73;57.61;101802.31;2406938;28;46275;-86
2022/05/10 03:14:19;;;;;;;;;28.00;25.75;;;;;18.71;57.22;101794.41;2399393;28;45429;-86
2022/05/10 03:15:29;;;;;;;;;29.75;29.00;;;;;18.74;57.44;101796.06;2384799;28;47949;-85
2022/05/10 03:16:39;;;;;;;;;31.75;29.75;;;;;18.75;57.69;101797.78;2398751;28;45371;-85
2022/05/10 03:17:50;;;;;;;;;32.75;30.50;;;;;18.74;57.34;101798.72;2400491;28;46248;-84
2022/05/10 03:19:01;;;;;;;;;30.50;27.25;;;;;18.75;57.53;101790.66;2410494;28;45333;-84
2022/05/10 03:20:11;;;;;;;;;28.50;28.50;;;;;18.75;57.48;101787.13;2397783;28;47100;-85
2022/05/10 03:21:23;;;;;;;;;34.75;30.00;;;;;18.73;57.25;101791.66;2399862;28;45482;-84
2022/05/10 03:22:33;;;;;;;;;28.50;25.00;;;;;18.76;57.58;101788.84;2394626;28;48480;-83
2022/05/10 03:23:44;;;;;;;;;36.75;31.50;;;;;18.77;57.36;101787.91;2389645;28;45220;-83
2022/05/10 03:24:54;;;;;;;;;30.00;26.00;;;;;18.78;57.24;101789.63;2395017;28;48076;-83
2022/05/10 03:26:05;;;;;;;;;30.25;26.00;;;;;18.78;57.04;101786.97;2386082;28;45359;-83
2022/05/10 03:27:18;;;;;;;;;30.25;28.00;;;;;18.78;57.53;101785.19;2402914;28;47516;-83
2022/05/10 03:28:28;;;;;;;;;29.50;26.75;;;;;18.81;57.40;101783.28;2408442;28;44774;-83
2022/05/10 03:29:39;;;;;;;;;31.75;29.25;;;;;18.80;57.05;101782.41;2389121;28;47047;-83
2022/05/10 03:30:50;;;;;;;;;29.75;25.75;;;;;18.82;57.54;101792.97;2387126;28;45302;-83
2022/05/10 03:32:01;;;;;;;;;30.25;29.00;;;;;18.81;57.35;101789.47;2390333;28;47012;-83
2022/05/10 03:33:11;;;;;;;;;27.75;27.75;;;;;18.82;57.14;101785.88;2401437;28;44793;-83
2022/05/10 03:35:51;;;;;;;;;31.50;27.75;;;;;18.83;56.93;101782.28;2400378;28;45323;-83
2022/05/10 03:37:02;;;;;;;;;33.00;29.00;;;;;18.82;57.33;101780.53;2408357;28;45399;-85
2022/05/10 03:38:13;;;;;;;;;32.50;31.00;;;;;18.83;57.43;101787.59;2405553;28;44830;-86
2022/05/10 03:39:23;;;;;;;;;32.25;30.50;;;;;18.83;57.40;101773.41;2400660;28;45518;-87
2022/05/10 03:40:34;;;;;;;;;32.75;29.25;;;;;18.82;57.47;101777.00;2396248;28;45342;-85
2022/05/10 03:41:44;;;;;;;;;20.75;20.75;;;;;18.83;56.95;101778.75;2399761;28;45421;-85
2022/05/10 03:42:55;;;;;;;;;31.25;27.75;;;;;18.83;57.38;101776.06;2395783;28;44738;-87
2022/05/10 03:44:06;;;;;;;;;31.50;30.75;;;;;18.82;57.04;101775.22;2397297;28;45542;-87
2022/05/10 03:45:19;;;;;;;;;31.50;28.25;;;;;18.82;57.11;101777.88;2401815;28;45314;-86
2022/05/10 03:46:29;;;;;;;;;32.50;29.50;;;;;18.79;57.15;101772.72;2386360;28;47420;-89
2022/05/10 03:47:40;;;;;;;;;28.75;27.50;;;;;18.80;57.50;101771.78;2386254;28;45518;-89
2022/05/10 03:48:50;;;;;;;;;28.25;27.00;;;;;18.81;57.43;101778.84;2403795;28;45567;-90
2022/05/10 03:50:00;;;;;;;;;31.50;28.50;;;;;18.81;57.08;101775.31;2400518;28;45473;-86
2022/05/10 03:51:11;;;;;;;;;40.50;30.50;;;;;18.81;57.48;101772.63;2389756;28;47128;-87
2022/05/10 03:52:21;;;;;;;;;34.50;30.00;;;;;18.80;57.64;101769.09;2391091;28;44715;-87
2022/05/10 03:53:31;;;;;;;;;36.00;32.25;;;;;18.80;57.27;101766.44;2389753;28;48074;-86
2022/05/10 03:54:43;;;;;;;;;32.25;28.50;;;;;18.78;57.27;101766.53;2392113;28;45208;-86
2022/05/10 03:55:53;;;;;;;;;34.50;28.75;;;;;18.80;56.81;101765.56;2390228;28;46455;-84
2022/05/10 03:57:05;;;;;;;;;27.50;26.00;;;;;18.81;57.19;101769.97;2399686;28;45352;-84
2022/05/10 03:58:15;;;;;;;;;31.50;28.75;;;;;18.80;56.85;101770.91;2399236;28;48013;-84
2022/05/10 03:59:26;;;;;;;;;32.75;30.50;;;;;18.78;56.89;101766.53;2391227;28;44751;-86
2022/05/10 04:00:36;;;;;;;;;33.25;28.25;;;;;18.78;57.15;101768.34;2411575;28;45637;-86
2022/05/10 04:01:47;;;;;;;;;31.25;30.25;;;;;18.78;57.15;101760.34;2394483;28;45296;-86
2022/05/10 04:02:58;;;;;;;;;30.00;27.75;;;;;18.77;57.06;101761.28;2401722;28;45368;-86
2022/05/10 04:04:09;;;;;;;;;29.25;26.50;;;;;18.77;57.22;101766.59;2391354;28;45306;-86
2022/05/10 04:05:19;;;;;;;;;27.50;26.25;;;;;18.76;57.04;101765.75;2385149;28;46997;-87
2022/05/10 04:06:31;;;;;;;;;32.50;30.75;;;;;18.76;56.77;101764.88;2401615;28;46012;-85
2022/05/10 04:07:41;;;;;;;;;32.75;31.50;;;;;18.76;57.01;101765.75;2402384;28;48179;-86
2022/05/10 04:08:52;;;;;;;;;29.00;28.25;;;;;18.74;56.85;101767.63;2395384;28;45344;-87
2022/05/10 04:10:05;;;;;;;;;29.75;27.50;;;;;18.77;57.38;101771.91;2392083;28;47424;-86
2022/05/10 04:11:16;;;;;;;;;30.75;28.75;;;;;18.74;56.82;101762.28;2398090;28;45484;-85
2022/05/10 04:12:26;;;;;;;;;36.00;30.25;;;;;18.75;57.21;101760.50;2408685;28;46439;-85
2022/05/10 04:13:41;;;;;;;;;31.75;28.00;;;;;18.75;56.80;101763.16;2405119;28;45211;-85
2022/05/10 04:14:52;;;;;;;;;30.50;30.00;;;;;18.75;57.49;101765.81;2390111;28;47038;-85
2022/05/10 04:16:03;;;;;;;;;31.00;30.25;;;;;18.75;57.06;101768.47;2404108;28;44854;-84
2022/05/10 04:17:13;;;;;;;;;30.00;28.00;;;;;18.75;57.24;101768.47;2398342;28;47362;-84
2022/05/10 04:18:23;;;;;;;;;30.00;27.75;;;;;18.75;56.96;101761.34;2401421;28;44812;-83
2022/05/10 04:19:34;;;;;;;;;31.00;28.75;;;;;18.74;57.43;101762.28;2404113;28;45572;-84
2022/05/10 04:20:44;;;;;;;;;29.50;27.00;;;;;18.74;57.31;101769.44;2399520;28;45390;-84
2022/05/10 04:21:55;;;;;;;;;31.50;28.25;;;;;18.74;56.96;101772.09;2393732;28;47124;-84
2022/05/10 04:23:05;;;;;;;;;31.25;27.25;;;;;18.75;57.29;101773.81;2402136;28;45304;-84
2022/05/10 04:24:16;;;;;;;;;37.25;32.00;;;;;18.75;57.09;101768.47;2399753;28;46835;-84
2022/05/10 04:25:27;;;;;;;;;30.50;30.50;;;;;18.75;57.47;101764.03;2395940;28;45545;-85
2022/05/10 04:26:37;;;;;;;;;31.50;29.00;;;;;18.73;57.46;101759.72;2406490;28;45391;-86
2022/05/10 04:27:48;;;;;;;;;28.25;26.50;;;;;18.75;56.94;101771.16;2388716;28;45280;-85
2022/05/10 04:28:58;;;;;;;;;27.00;24.75;;;;;18.73;57.14;101763.25;2402039;28;45381;-85
2022/05/10 04:30:10;;;;;;;;;31.75;30.50;;;;;18.74;56.99;101769.44;2402781;28;45231;-85
2022/05/10 04:31:20;;;;;;;;;27.25;26.50;;;;;18.75;56.83;101763.16;2401910;28;45402;-85
2022/05/10 04:32:31;;;;;;;;;31.00;28.25;;;;;18.76;56.98;101767.56;2408637;28;45428;-85
2022/05/10 04:33:42;;;;;;;;;28.00;25.75;;;;;18.76;56.58;101771.09;2392499;28;47325;-85
2022/05/10 04:34:52;;;;;;;;;30.25;29.50;;;;;18.76;56.93;101768.41;2391021;28;45267;-85
2022/05/10 04:36:03;;;;;;;;;30.25;27.50;;;;;18.78;56.64;101776.31;2395208;28;46688;-85
2022/05/10 04:37:14;;;;;;;;;31.25;28.50;;;;;18.77;57.23;101771.91;2408165;28;44774;-86
2022/05/10 04:38:25;;;;;;;;;34.75;30.25;;;;;18.77;56.97;101771.91;2407444;28;45294;-85
2022/05/10 04:42:33;;;;;;;;;30.25;28.50;;;;;18.78;56.82;101768.34;2398475;28;45548;-85
2022/05/10 04:43:44;;;;;;;;;34.25;31.50;;;;;18.76;57.07;101767.56;2394231;28;47122;-85
2022/05/10 04:44:54;;;;;;;;;31.00;26.25;;;;;18.78;57.32;101760.34;2399594;28;45284;-85
2022/05/10 04:46:05;;;;;;;;;30.75;28.00;;;;;18.80;57.22;101771.78;2393802;28;47590;-85
2022/05/10 04:47:15;;;;;;;;;33.50;28.25;;;;;18.81;56.95;101769.97;2404091;28;44657;-85
2022/05/10 04:48:26;;;;;;;;;26.75;25.50;;;;;18.82;56.96;101769.00;2407960;28;46793;-85
2022/05/10 04:49:36;;;;;;;;;25.75;25.00;;;;;18.82;56.88;101772.53;2399874;28;44692;-85
2022/05/10 04:50:48;;;;;;;;;31.00;27.25;;;;;18.84;57.09;101772.50;2405795;28;45346;-85
2022/05/10 04:51:58;;;;;;;;;31.50;27.50;;;;;18.84;57.10;101762.66;2405279;28;45436;-83
2022/05/10 04:53:09;;;;;;;;;31.25;29.75;;;;;18.85;57.18;101771.53;2399056;28;47251;-83
2022/05/10 04:54:19;;;;;;;;;30.75;26.75;;;;;18.82;56.85;101769.88;2397138;28;45353;-83
2022/05/10 04:55:30;;;;;;;;;26.75;26.50;;;;;18.83;57.07;101768.97;2404489;28;45563;-83
2022/05/10 04:56:41;;;;;;;;;30.50;29.75;;;;;18.85;56.60;101772.41;2391361;28;46413;-83
2022/05/10 04:57:51;;;;;;;;;24.75;24.50;;;;;18.86;56.98;101770.59;2386402;28;47081;-83
2022/05/10 04:59:02;;;;;;;;;29.50;29.25;;;;;18.87;56.91;101769.63;2400196;28;44762;-83
2022/05/10 05:00:14;;;;;;;;;30.75;28.75;;;;;18.89;57.09;101770.41;2397834;28;46277;-82
2022/05/10 05:01:27;;;;;;;;;29.25;27.00;;;;;18.87;56.86;101773.16;2394147;28;45513;-83
2022/05/10 05:02:38;;;;;;;;;33.75;28.75;;;;;18.88;57.23;101768.72;2389577;28;46953;-83
2022/05/10 05:03:50;;;;;;;;;29.25;28.50;;;;;18.91;56.48;101779.22;2392936;28;45345;-85
2022/05/10 05:05:00;;;;;;;;;28.25;28.00;;;;;18.91;56.58;101767.69;2404740;28;45790;-85
2022/05/10 05:06:11;;;;;;;;;28.50;27.50;;;;;18.90;56.61;101772.16;2404024;28;45457;-86
2022/05/10 05:07:22;;;;;;;;;28.75;27.50;;;;;18.93;56.87;101773.78;2406647;28;46521;-84
2022/05/10 05:08:32;;;;;;;;;27.25;24.75;;;;;18.92;56.89;101770.25;2402975;28;45462;-86
2022/05/10 05:09:43;;;;;;;;;30.25;27.00;;;;;18.94;56.66;101772.88;2402797;28;45398;-90
2022/05/10 05:10:57;;;;;;;;;31.25;30.00;;;;;18.95;56.66;101772.78;2394716;28;45239;-90
2022/05/10 05:12:08;;;;;;;;;33.00;28.75;;;;;18.95;56.86;101778.09;2400206;28;47456;-82
2022/05/10 05:13:18;;;;;;;;;32.50;27.50;;;;;18.96;56.89;101776.31;2399697;28;45441;-85
2022/05/10 05:14:28;;;;;;;;;31.00;27.75;;;;;18.97;56.53;101775.34;2406563;28;45371;-85
2022/05/10 05:15:39;;;;;;;;;31.00;27.25;;;;;18.99;56.57;101778.78;2394049;28;45289;-86
2022/05/10 05:16:49;;;;;;;;;30.00;27.50;;;;;19.00;56.11;101777.88;2392601;28;47498;-87
2022/05/10 05:18:03;;;;;;;;;31.50;29.00;;;;;19.02;56.19;101781.31;2393920;28;45686;-86
2022/05/10 05:19:13;;;;;;;;;34.25;27.75;;;;;19.01;56.51;101779.59;2403063;28;45507;-87
2022/05/10 05:20:23;;;;;;;;;31.75;27.75;;;;;19.04;56.09;101779.41;2396889;28;45286;-87
2022/05/10 05:21:34;;;;;;;;;30.25;26.50;;;;;19.03;55.84;101772.38;2388049;28;48125;-88
2022/05/10 05:22:44;;;;;;;;;29.00;28.25;;;;;19.04;56.04;101760.75;2386135;28;45482;-87
2022/05/10 05:23:54;;;;;;;;;28.25;26.75;;;;;19.05;56.27;101770.50;2400734;28;46232;-87
2022/05/10 05:25:06;;;;;;;;;32.25;25.50;;;;;19.07;55.79;101768.59;2403407;28;45353;-87
2022/05/10 05:26:18;;;;;;;;;28.50;28.00;;;;;19.09;56.04;101771.16;2405827;28;45650;-86
2022/05/10 05:27:29;;;;;;;;;25.75;22.75;;;;;19.10;55.99;101767.59;2400529;28;44776;-87
2022/05/10 05:28:39;;;;;;;;;27.00;26.00;;;;;19.10;56.13;101771.13;2391132;28;46982;-89
2022/05/10 05:29:49;;;;;;;;;25.25;25.25;;;;;19.11;56.44;101774.66;2384263;28;45307;-89
2022/05/10 05:31:01;;;;;;;;;29.50;26.75;;;;;19.11;55.81;101775.47;2381242;28;47876;-86
2022/05/10 05:32:12;;;;;;;;;28.75;24.75;;;;;19.14;56.14;101778.94;2392349;28;45256;-87
2022/05/10 05:33:22;;;;;;;;;15.50;13.25;;;;;19.15;56.27;101780.66;2389677;28;47559;-86
2022/05/10 05:34:35;;;;;;;;;31.50;27.75;;;;;19.15;56.06;101780.66;2401396;28;44703;-88
2022/05/10 05:35:45;;;;;;;;;32.00;27.75;;;;;19.16;56.02;101780.56;2404578;28;45294;-87
2022/05/10 05:38:26;;;;;;;;;27.75;25.50;;;;;19.17;56.06;101779.66;2395268;28;45505;-86
2022/05/10 05:39:36;;;;;;;;;26.00;25.75;;;;;19.18;55.99;101776.06;2396252;28;45503;-87
2022/05/10 05:40:47;;;;;;;;;25.75;25.75;;;;;19.19;56.08;101782.22;2401242;28;46277;-86
2022/05/10 05:41:57;;;;;;;;;30.75;26.25;;;;;19.20;56.30;101782.19;2394535;28;44757;-86
2022/05/10 05:43:18;;;;;;;;;25.00;24.00;;;;;19.20;56.14;101778.66;2387138;28;47743;-86
2022/05/10 05:44:29;;;;;;;;;28.00;24.25;;;;;19.22;56.60;101787.41;2388372;28;45429;-89
2022/05/10 05:45:39;;;;;;;;;23.75;23.75;;;;;19.22;56.21;101782.09;2399581;28;46354;-88
2022/05/10 05:46:50;;;;;;;;;24.00;24.00;;;;;19.23;56.00;101779.34;2391383;28;45291;-87
2022/05/10 05:48:01;;;;;;;;;28.00;25.50;;;;;19.23;55.81;101784.69;2380146;28;48009;-87